Time;durP1;ratioP1;P1;durP2;ratioP2;P2;SDS_P1;SDS_P2;PMS_P1;PMS_P2;Temp;Humidity;BMP_temperature;BMP_pressure;BME280_temperature;BME280_humidity;BME280_pressure;Samples;Min_cycle;Max_cycle;Signal;HPM_P1;HPM_P2
2021/10/09 00:00:53;;;;;;;51.10;28.13;;;;;;;10.87;90.57;102528.19;5067392;28;20036;-69
2021/10/09 00:03:18;;;;;;;49.30;28.48;;;;;;;10.81;90.75;102525.44;5085543;28;20024;-68
2021/10/09 00:05:43;;;;;;;56.15;29.88;;;;;;;10.76;90.75;102522.72;5085334;28;20449;-68
2021/10/09 00:08:14;;;;;;;55.97;28.60;;;;;;;10.72;90.96;102525.22;5085358;28;20096;-69
2021/10/09 00:10:39;;;;;;;55.55;28.75;;;;;;;10.58;91.19;102504.94;5067579;28;20020;-69
2021/10/09 00:13:05;;;;;;;62.22;30.95;;;;;;;10.56;91.35;102510.97;5085129;28;20024;-69
2021/10/09 00:15:30;;;;;;;67.82;33.25;;;;;;;10.59;91.39;102516.22;5067385;28;20028;-69
2021/10/09 00:17:55;;;;;;;60.42;31.92;;;;;;;10.53;91.38;102519.53;5085089;28;20020;-70
2021/10/09 00:20:21;;;;;;;57.63;30.90;;;;;;;10.51;91.68;102519.50;5085159;28;20016;-70
2021/10/09 00:22:46;;;;;;;61.22;30.17;;;;;;;10.49;91.52;102523.78;5084800;28;20050;-69
2021/10/09 00:25:12;;;;;;;60.90;29.40;;;;;;;10.46;91.44;102515.00;5084885;28;20035;-68
2021/10/09 00:27:37;;;;;;;58.05;29.77;;;;;;;10.43;91.83;102525.31;5084845;28;20082;-68
2021/10/09 00:30:06;;;;;;;58.50;29.23;;;;;;;10.34;91.51;102511.22;5084865;28;20036;-69
2021/10/09 00:32:32;;;;;;;55.55;28.52;;;;;;;10.37;91.54;102520.81;5084884;28;20017;-69
2021/10/09 00:34:58;;;;;;;67.30;31.73;;;;;;;10.33;91.78;102517.28;5084800;28;20020;-68
2021/10/09 00:37:23;;;;;;;57.58;27.63;;;;;;;10.28;91.78;102505.88;5084695;28;20028;-69
2021/10/09 00:39:49;;;;;;;64.07;31.92;;;;;;;10.29;92.00;102515.41;5084749;28;20024;-67
2021/10/09 00:42:14;;;;;;;63.15;30.05;;;;;;;10.31;92.23;102520.66;5084613;28;20396;-67
2021/10/09 00:44:40;;;;;;;57.38;27.73;;;;;;;10.29;92.13;102523.19;5084694;28;20245;-68
2021/10/09 00:47:05;;;;;;;62.28;29.48;;;;;;;10.27;91.95;102520.56;5084643;28;20434;-68
2021/10/09 00:49:32;;;;;;;69.03;32.97;;;;;;;10.26;92.21;102518.81;5084319;28;20020;-68
2021/10/09 00:52:01;;;;;;;65.55;30.67;;;;;;;10.23;92.22;102517.84;5066285;28;20020;-68
2021/10/09 00:54:28;;;;;;;72.78;32.20;;;;;;;10.20;92.31;102517.75;5084174;28;20511;-69
2021/10/09 00:56:56;;;;;;;69.65;30.88;;;;;;;10.18;91.98;102520.31;5084003;28;20267;-69
2021/10/09 00:59:25;;;;;;;66.20;32.58;;;;;;;10.15;92.05;102522.84;5084035;28;20024;-68
2021/10/09 01:01:50;;;;;;;63.80;30.25;;;;;;;10.09;92.21;102514.88;5083509;28;20028;-69
2021/10/09 01:04:17;;;;;;;63.08;31.58;;;;;;;10.09;92.16;102523.56;5066190;28;20020;-69
2021/10/09 01:06:43;;;;;;;68.78;32.25;;;;;;;10.09;92.54;102518.38;5084103;28;20069;-69
2021/10/09 01:09:08;;;;;;;67.28;30.77;;;;;;;10.06;92.20;102520.88;5084055;28;20334;-69
2021/10/09 01:11:34;;;;;;;80.57;37.83;;;;;;;10.06;92.13;102520.88;5083976;28;20600;-69
2021/10/09 01:13:59;;;;;;;79.00;36.85;;;;;;;10.05;92.21;102519.09;5065772;28;20056;-69
2021/10/09 01:16:27;;;;;;;73.53;32.90;;;;;;;10.03;92.36;102515.59;5083969;28;20468;-69
2021/10/09 01:18:55;;;;;;;73.63;34.28;;;;;;;10.03;92.26;102523.38;5083762;28;20036;-69
2021/10/09 01:21:23;;;;;;;63.95;32.20;;;;;;;10.04;92.57;102517.34;5056238;28;20052;-69
2021/10/09 01:23:50;;;;;;;65.60;30.30;;;;;;;10.01;92.35;102517.25;5043679;28;20133;-69
2021/10/09 01:26:16;;;;;;;68.72;31.52;;;;;;;10.00;92.65;102520.72;5043711;28;20401;-70
2021/10/09 01:28:51;;;;;;;59.30;31.77;;;;;;;10.00;92.55;102520.72;5043470;28;20045;-70
2021/10/09 01:31:17;;;;;;;69.20;33.08;;;;;;;9.97;92.58;102520.63;5043752;28;20021;-70
2021/10/09 01:33:43;;;;;;;74.95;32.83;;;;;;;9.98;92.36;102519.78;5043751;28;20116;-69
2021/10/09 01:36:09;;;;;;;68.70;34.30;;;;;;;9.97;92.44;102518.03;5043870;28;20018;-69
2021/10/09 01:38:35;;;;;;;67.78;34.42;;;;;;;9.97;92.35;102520.63;5043650;28;20029;-69
2021/10/09 01:41:02;;;;;;;72.70;34.22;;;;;;;9.99;92.70;102518.94;5043594;28;20083;-69
2021/10/09 01:43:28;;;;;;;69.75;33.67;;;;;;;10.01;92.63;102517.25;5043299;28;20061;-68
2021/10/09 01:45:53;;;;;;;70.78;32.30;;;;;;;10.01;92.61;102512.06;5043505;28;20025;-69
2021/10/09 01:48:28;;;;;;;63.22;32.70;;;;;;;10.02;92.68;102519.00;5043585;28;20063;-69
2021/10/09 01:50:54;;;;;;;65.30;27.33;;;;;;;10.08;92.29;102524.38;5043508;28;20039;-68
2021/10/09 01:53:19;;;;;;;60.42;30.48;;;;;;;10.10;92.34;102517.53;5041983;28;20049;-70
2021/10/09 01:55:44;;;;;;;59.85;30.73;;;;;;;10.06;92.72;102513.09;5043239;28;20021;-68
2021/10/09 01:58:10;;;;;;;60.42;28.75;;;;;;;10.03;92.71;102513.88;5043171;28;20059;-69
2021/10/09 02:00:35;;;;;;;54.70;28.85;;;;;;;10.08;92.91;102518.31;5043115;28;20481;-69
2021/10/09 02:03:05;;;;;;;64.32;30.02;;;;;;;10.10;92.83;102520.09;5043373;28;20017;-69
2021/10/09 02:05:32;;;;;;;57.75;30.92;;;;;;;10.12;92.55;102515.84;5043070;28;20029;-69
2021/10/09 02:07:58;;;;;;;49.65;27.35;;;;;;;10.07;93.01;102517.44;5043318;28;20030;-69
2021/10/09 02:10:24;;;;;;;57.00;29.83;;;;;;;10.09;92.82;102505.38;5043037;28;20056;-68
2021/10/09 02:12:50;;;;;;;60.03;29.92;;;;;;;10.04;92.68;102506.97;5042837;28;20120;-69
2021/10/09 02:15:19;;;;;;;61.75;30.40;;;;;;;10.08;92.73;102508.78;5043508;28;20036;-69
2021/10/09 02:25:56;;;;;;;71.78;33.30;;;;;;;9.99;92.76;102498.16;5043070;28;20107;-68
2021/10/09 02:28:22;;;;;;;75.35;35.42;;;;;;;9.97;92.37;102497.28;5043123;28;20025;-69
2021/10/09 02:30:49;;;;;;;64.00;32.28;;;;;;;9.95;92.35;102502.41;5042961;28;20087;-68
2021/10/09 02:33:14;;;;;;;74.45;33.15;;;;;;;9.92;92.25;102503.19;5043208;28;20056;-69
2021/10/09 02:35:40;;;;;;;71.15;32.53;;;;;;;9.82;92.73;102490.81;5042928;28;20025;-69
2021/10/09 02:38:10;;;;;;;82.90;33.80;;;;;;;9.82;92.81;102496.00;5043122;28;20029;-68
2021/10/09 02:40:39;;;;;;;85.90;33.05;;;;;;;9.81;92.53;102504.59;5042890;28;20392;-69
2021/10/09 02:43:06;;;;;;;72.65;27.33;;;;;;;9.78;92.49;102507.09;5042828;28;20057;-69
2021/10/09 02:45:31;;;;;;;90.50;34.85;;;;;;;9.71;92.44;102494.81;5042879;28;20025;-69
2021/10/09 02:48:02;;;;;;;97.20;36.83;;;;;;;9.70;92.60;102495.63;5042822;28;20072;-69
2021/10/09 02:50:28;;;;;;;101.20;37.88;;;;;;;9.67;92.88;102499.00;5042703;28;20062;-70
2021/10/09 02:52:55;;;;;;;95.95;36.05;;;;;;;9.63;92.93;102490.25;5042407;28;20544;-70
2021/10/09 02:55:20;;;;;;;111.22;37.58;;;;;;;9.67;nan;102505.09;5042767;28;20033;-70
2021/10/09 02:57:47;;;;;;;112.38;40.75;;;;;;;9.62;92.99;102501.47;5042279;28;20113;-69
2021/10/09 03:00:13;;;;;;;112.38;40.15;;;;;;;9.63;92.99;102502.38;5042587;28;20021;-69
2021/10/09 03:02:39;;;;;;;117.38;42.67;;;;;;;9.60;93.34;102500.53;5042726;28;20022;-70
2021/10/09 03:05:05;;;;;;;129.48;43.30;;;;;;;9.51;93.49;102485.59;5041229;28;20029;-70
2021/10/09 03:07:31;;;;;;;133.77;42.15;;;;;;;9.60;93.04;102494.50;5041369;28;20120;-70
2021/10/09 03:09:56;;;;;;;146.38;45.15;;;;;;;9.60;93.53;102484.13;5042766;28;20032;-69
2021/10/09 03:12:22;;;;;;;137.73;45.65;;;;;;;9.60;93.19;102492.75;5042487;28;20044;-68
2021/10/09 03:14:47;;;;;;;118.18;43.38;;;;;;;9.62;93.33;102493.69;5042700;28;20120;-68
2021/10/09 03:17:12;;;;;;;118.82;41.35;;;;;;;9.60;93.31;102490.16;5042831;28;20108;-68
2021/10/09 03:19:38;;;;;;;171.80;45.00;;;;;;;9.60;93.29;102490.16;5042517;28;20033;-69
2021/10/09 03:22:04;;;;;;;142.70;38.50;;;;;;;9.55;93.59;102484.00;5066372;28;20079;-70
2021/10/09 03:24:29;;;;;;;168.35;48.40;;;;;;;9.60;93.29;102484.13;5084866;28;20094;-70
2021/10/09 03:26:54;;;;;;;162.80;46.90;;;;;;;9.55;93.52;102491.78;5085781;28;20392;-70
2021/10/09 03:29:20;;;;;;;175.13;44.90;;;;;;;9.58;93.54;102485.78;5086078;28;20025;-70
2021/10/09 03:31:45;;;;;;;153.65;48.15;;;;;;;9.57;93.72;102484.03;5085787;28;20052;-69
2021/10/09 03:34:10;;;;;;;144.02;41.95;;;;;;;9.60;93.66;102484.13;5085941;28;20112;-69
2021/10/09 03:36:36;;;;;;;165.38;48.08;;;;;;;9.59;93.64;102483.22;5085818;28;20031;-69
2021/10/09 03:39:06;;;;;;;155.40;44.83;;;;;;;9.59;93.56;102488.41;5085867;28;20021;-69
2021/10/09 03:41:32;;;;;;;138.07;40.20;;;;;;;9.57;93.69;102484.03;5085783;28;20032;-68
2021/10/09 03:43:57;;;;;;;134.00;44.75;;;;;;;9.55;93.62;102478.81;5085545;28;20094;-69
2021/10/09 03:46:26;;;;;;;137.30;43.63;;;;;;;9.58;93.95;102478.88;5085779;28;20021;-70
2021/10/09 03:54:01;;;;;;;127.18;42.78;;;;;;;9.55;93.82;102482.25;5085583;28;20055;-69
2021/10/09 03:56:26;;;;;;;147.20;42.85;;;;;;;9.61;93.64;102489.34;5085397;28;20020;-69
2021/10/09 03:58:52;;;;;;;130.15;46.13;;;;;;;9.59;93.55;102484.94;5085054;28;20060;-69
2021/10/09 04:01:17;;;;;;;148.80;46.75;;;;;;;9.56;94.00;102480.56;5085475;28;20020;-69
2021/10/09 04:03:42;;;;;;;148.18;46.22;;;;;;;9.62;93.86;102479.84;5085303;28;20028;-70
2021/10/09 04:06:08;;;;;;;129.63;46.35;;;;;;;9.60;93.59;102474.59;5085202;28;20051;-68
2021/10/09 04:08:33;;;;;;;136.50;46.10;;;;;;;9.56;93.85;102477.97;5085470;28;20057;-69
2021/10/09 04:10:58;;;;;;;153.93;51.63;;;;;;;9.64;93.81;102485.97;5085196;28;20093;-68
2021/10/09 04:13:24;;;;;;;151.77;49.25;;;;;;;9.66;93.59;102479.97;5100699;28;20121;-69
2021/10/09 04:15:49;;;;;;;124.68;42.03;;;;;;;9.66;93.61;102490.34;5067070;28;20028;-69
2021/10/09 04:18:14;;;;;;;137.73;45.65;;;;;;;9.69;93.81;102486.97;5085031;28;20039;-68
2021/10/09 04:20:40;;;;;;;143.35;45.38;;;;;;;9.67;93.63;102484.34;5084870;28;20320;-68
2021/10/09 04:23:06;;;;;;;150.20;46.70;;;;;;;9.75;93.75;102496.63;5085100;28;20061;-69
2021/10/09 04:25:31;;;;;;;134.15;45.30;;;;;;;9.78;93.57;102494.13;5084870;28;20033;-70
2021/10/09 04:27:56;;;;;;;133.43;45.63;;;;;;;9.79;93.27;102488.13;5084671;28;20028;-70
2021/10/09 04:30:22;;;;;;;131.52;43.20;;;;;;;9.77;93.24;102485.50;5084735;28;20021;-69
2021/10/09 04:32:47;;;;;;;140.00;44.97;;;;;;;9.73;93.72;102486.22;5084632;28;20037;-68
2021/10/09 04:35:12;;;;;;;142.80;45.35;;;;;;;9.71;93.64;102487.03;5083617;28;20027;-68
2021/10/09 04:37:38;;;;;;;127.78;45.88;;;;;;;9.76;93.64;102480.25;5084608;28;20021;-68
2021/10/09 04:40:05;;;;;;;168.68;51.28;;;;;;;9.81;93.72;102490.75;5084543;28;20028;-68
2021/10/09 04:42:30;;;;;;;168.98;49.35;;;;;;;9.81;93.80;102485.56;5084115;28;20025;-68
2021/10/09 04:44:55;;;;;;;178.30;51.53;;;;;;;9.82;93.69;102492.50;5084267;28;20050;-68
2021/10/09 04:47:21;;;;;;;171.02;49.90;;;;;;;9.81;93.64;102490.75;5084524;28;20095;-69
2021/10/09 04:49:46;;;;;;;173.70;52.13;;;;;;;9.81;93.70;102481.25;5084223;28;20453;-68
2021/10/09 04:52:11;;;;;;;186.98;50.28;;;;;;;9.84;93.71;102486.53;5084265;28;20031;-68
2021/10/09 04:54:37;;;;;;;176.52;50.80;;;;;;;9.84;93.36;102478.72;5084464;28;20025;-68
2021/10/09 04:57:02;;;;;;;181.65;50.40;;;;;;;9.78;93.57;102479.47;5084090;28;20064;-68
2021/10/09 04:59:28;;;;;;;208.10;50.58;;;;;;;9.81;93.39;102488.16;5084017;28;20068;-68
2021/10/09 05:01:53;;;;;;;270.90;55.58;;;;;;;9.80;92.85;102479.50;5084119;28;20021;-68
2021/10/09 05:04:18;;;;;;;304.20;52.47;;;;;;;9.69;93.27;102478.31;5083967;28;20032;-68
2021/10/09 05:06:44;;;;;;;267.20;52.95;;;;;;;9.72;92.60;102487.06;5084061;28;20074;-68
2021/10/09 05:09:09;;;;;;;254.07;43.50;;;;;;;9.62;92.83;102491.09;5084007;28;20021;-67
2021/10/09 05:11:34;;;;;;;311.77;51.72;;;;;;;9.58;93.38;102486.66;5084024;28;20079;-68
2021/10/09 05:14:00;;;;;;;407.40;57.78;;;;;;;9.56;92.97;102490.91;5083759;28;20028;-69
2021/10/09 05:16:25;;;;;;;299.35;52.85;;;;;;;9.49;93.29;102482.06;5083932;28;20017;-69
2021/10/09 05:18:50;;;;;;;181.82;35.15;;;;;;;9.52;93.52;102492.53;5083566;28;20032;-70
2021/10/09 05:21:16;;;;;;;182.57;41.97;;;;;;;9.53;93.76;102491.72;5065615;28;20060;-70
2021/10/09 05:23:41;;;;;;;178.07;45.00;;;;;;;9.53;93.98;102483.06;5083867;28;20024;-69
2021/10/09 05:26:07;;;;;;;234.23;49.30;;;;;;;9.56;93.86;102485.75;5083637;28;20028;-69
2021/10/09 05:28:42;;;;;;;188.25;46.63;;;;;;;9.58;93.87;102491.84;5083504;28;20030;-70
2021/10/09 05:31:12;;;;;;;202.90;47.83;;;;;;;9.59;93.71;102491.00;5083573;28;20088;-69
2021/10/09 05:33:39;;;;;;;170.32;45.80;;;;;;;9.61;94.03;102481.56;5065874;28;20023;-69
2021/10/09 05:36:05;;;;;;;189.98;42.13;;;;;;;9.64;93.77;102491.16;5083441;28;20016;-69
2021/10/09 05:38:32;;;;;;;183.43;47.08;;;;;;;9.66;93.66;102492.94;5083354;28;20078;-69
2021/10/09 05:40:57;;;;;;;176.57;48.58;;;;;;;9.64;94.10;102485.97;5083535;28;20031;-69
2021/10/09 05:43:24;;;;;;;164.88;45.90;;;;;;;9.63;93.95;102490.25;5083285;28;20016;-69
2021/10/09 05:45:50;;;;;;;172.50;41.22;;;;;;;9.65;94.11;102498.97;5082996;28;20040;-69
2021/10/09 05:48:15;;;;;;;187.43;49.03;;;;;;;9.67;93.78;102497.31;5083214;28;20024;-67
2021/10/09 05:58:17;;;;;;;153.63;40.08;;;;;;;9.70;93.63;102496.50;5083178;28;20032;-69
2021/10/09 06:44:56;;;;;;;50.13;27.65;;;;;;;10.49;94.20;102487.44;5020281;28;20101;-69
2021/10/09 06:50:37;;;;;;;44.40;24.17;;;;;;;10.73;94.14;102483.69;5020185;28;20045;-68
2021/10/09 07:01:19;;;;;;;27.30;18.30;;;;;;;11.15;94.13;102502.84;5086665;28;20051;-67
2021/10/09 07:03:44;;;;;;;27.38;17.52;;;;;;;11.29;94.01;102499.69;5086664;28;20020;-68
2021/10/09 07:06:10;;;;;;;27.10;17.75;;;;;;;11.43;93.86;102501.69;5086628;28;20033;-69
2021/10/09 07:08:47;;;;;;;27.58;18.17;;;;;;;11.46;93.83;102496.56;5086655;28;20036;-69
2021/10/09 07:11:15;;;;;;;27.58;17.42;;;;;;;11.56;93.82;102505.44;5086305;28;20048;-65
2021/10/09 07:13:40;;;;;;;23.02;15.75;;;;;;;11.60;93.70;102502.94;5086161;28;20017;-65
2021/10/09 07:16:06;;;;;;;20.77;14.35;;;;;;;11.66;93.78;102507.41;5086272;28;20040;-65
2021/10/09 07:18:33;;;;;;;24.40;14.95;;;;;;;11.77;93.48;102507.63;5086335;28;20035;-69
2021/10/09 07:20:59;;;;;;;23.70;13.65;;;;;;;11.81;93.57;102504.22;5086061;28;20047;-69
2021/10/09 07:23:24;;;;;;;23.13;14.98;;;;;;;11.92;93.26;102509.66;5086642;28;20080;-68
2021/10/09 07:25:49;;;;;;;21.58;13.38;;;;;;;11.91;92.79;102515.72;5085938;28;20086;-69
2021/10/09 07:28:15;;;;;;;17.35;13.63;;;;;;;11.94;92.81;102515.78;5067969;28;20024;-69
2021/10/09 07:30:40;;;;;;;22.70;14.13;;;;;;;11.93;93.06;102519.25;5086238;28;20043;-69
2021/10/09 07:33:05;;;;;;;20.85;15.80;;;;;;;12.03;92.92;102517.66;5068040;28;20028;-69
2021/10/09 07:35:31;;;;;;;21.05;14.32;;;;;;;12.07;92.92;102514.28;5086203;28;20032;-69
2021/10/09 07:37:56;;;;;;;18.13;12.90;;;;;;;12.17;92.46;102515.38;5085949;28;20028;-69
2021/10/09 07:40:22;;;;;;;20.17;15.20;;;;;;;12.17;92.53;102517.09;5085837;28;20024;-69
2021/10/09 07:42:51;;;;;;;24.75;15.70;;;;;;;12.18;92.31;102524.06;5085521;28;20036;-70
2021/10/09 07:45:16;;;;;;;23.63;16.10;;;;;;;12.26;91.68;102525.09;5085666;28;20074;-71
2021/10/09 07:47:42;;;;;;;22.67;16.35;;;;;;;12.27;92.14;102521.63;5085658;28;20025;-71
2021/10/09 07:50:08;;;;;;;27.75;16.20;;;;;;;12.27;91.76;102516.41;5085529;28;20032;-72
2021/10/09 07:52:37;;;;;;;23.20;15.10;;;;;;;12.27;91.82;102513.81;5085626;28;20100;-71
2021/10/09 07:55:03;;;;;;;21.30;12.68;;;;;;;12.31;91.59;102518.25;5085377;28;20028;-73
2021/10/09 07:57:29;;;;;;;23.40;15.35;;;;;;;12.42;91.72;102526.25;5067006;28;20028;-72
2021/10/09 07:59:54;;;;;;;20.42;14.30;;;;;;;12.49;91.94;102529.84;5085171;28;20020;-72
2021/10/09 08:02:19;;;;;;;19.25;12.82;;;;;;;12.62;92.19;102529.19;5085586;28;20024;-72
2021/10/09 08:04:45;;;;;;;18.73;12.95;;;;;;;12.67;91.58;102515.38;5085062;28;20025;-72
2021/10/09 08:07:10;;;;;;;17.42;12.93;;;;;;;12.79;91.36;102528.63;5085374;28;20025;-71
2021/10/09 08:09:36;;;;;;;16.58;12.18;;;;;;;12.88;91.27;102538.31;5084829;28;20055;-71
2021/10/09 08:12:05;;;;;;;20.17;12.95;;;;;;;12.95;91.11;102528.84;5066758;28;20024;-71
2021/10/09 08:14:30;;;;;;;16.05;12.02;;;;;;;13.09;91.41;102539.50;5084874;28;20349;-70
2021/10/09 08:16:56;;;;;;;16.45;11.98;;;;;;;13.21;91.10;102526.63;5085359;28;20070;-72
2021/10/09 08:19:22;;;;;;;15.65;11.50;;;;;;;13.22;90.71;102527.53;5085185;28;20661;-71
2021/10/09 08:21:47;;;;;;;18.08;12.02;;;;;;;13.23;89.76;102535.38;5084969;28;20044;-71
2021/10/09 08:40:16;;;;;;;18.48;11.48;;;;;;;13.60;88.73;102523.72;5084633;28;20057;-71
2021/10/09 08:42:43;;;;;;;15.10;10.65;;;;;;;13.86;88.96;102531.91;5084394;28;20024;-69
2021/10/09 08:45:10;;;;;;;13.05;9.43;;;;;;;13.97;87.62;102536.34;5084962;28;20078;-70
2021/10/09 08:47:37;;;;;;;14.30;9.82;;;;;;;14.08;87.16;102529.53;5084659;28;20028;-71
2021/10/09 08:50:06;;;;;;;14.73;8.70;;;;;;;13.87;84.18;102511.84;5066713;28;20426;-73
2021/10/09 08:52:32;;;;;;;11.77;8.48;;;;;;;13.86;83.75;102531.91;5084433;28;20042;-73
2021/10/09 08:54:58;;;;;;;12.38;8.45;;;;;;;13.80;84.03;102530.94;5065911;28;20032;-73
2021/10/09 08:57:26;;;;;;;10.35;8.52;;;;;;;13.79;83.79;102530.03;5065917;28;20023;-74
2021/10/09 09:00:01;;;;;;;11.40;8.00;;;;;;;13.93;83.81;102542.41;5066170;28;20020;-73
2021/10/09 09:02:41;;;;;;;9.93;7.47;;;;;;;14.58;84.87;102540.47;5084286;28;20031;-72
2021/10/09 09:05:32;;;;;;;12.65;7.57;;;;;;;15.53;83.86;102534.19;5084469;28;20071;-71
2021/10/09 09:25:30;;;;;;;10.25;8.55;;;;;;;14.93;80.87;102541.66;5001751;28;20069;-72
2021/10/09 09:39:09;;;;;;;10.90;7.38;;;;;;;14.76;81.84;102551.91;5001732;28;20026;-74
2021/10/09 09:41:49;;;;;;;10.05;8.10;;;;;;;14.64;80.65;102544.88;4985326;28;20034;-72
2021/10/09 09:44:17;;;;;;;11.75;7.43;;;;;;;14.56;78.47;102552.63;5001524;28;20034;-73
2021/10/09 09:47:00;;;;;;;9.80;7.40;;;;;;;14.50;80.67;102550.81;5001581;28;20553;-72
2021/10/09 09:49:28;;;;;;;11.55;7.35;;;;;;;14.46;79.58;102554.28;5001524;28;20095;-73
2021/10/09 09:51:55;;;;;;;10.85;7.97;;;;;;;14.27;78.91;102545.38;5001373;28;20037;-75
2021/10/09 09:54:26;;;;;;;11.57;8.52;;;;;;;14.20;79.10;102547.03;5001533;28;20026;-73
2021/10/09 09:56:59;;;;;;;14.35;9.18;;;;;;;14.13;78.97;102556.56;5052565;28;20086;-73
2021/10/09 09:59:34;;;;;;;11.90;9.15;;;;;;;14.00;80.00;102567.72;5083213;28;20020;-72
2021/10/09 10:02:04;;;;;;;11.88;9.73;;;;;;;13.82;79.60;102564.03;5083219;28;20020;-73
2021/10/09 10:04:34;;;;;;;14.00;9.45;;;;;;;13.82;80.86;102550.09;5083501;28;20021;-73
2021/10/09 10:07:01;;;;;;;14.25;9.20;;;;;;;13.84;81.33;102561.44;5083153;28;20029;-73
2021/10/09 10:09:28;;;;;;;13.73;9.98;;;;;;;13.88;82.05;102553.66;5083112;28;20104;-73
2021/10/09 10:11:59;;;;;;;12.32;9.77;;;;;;;13.86;81.82;102547.56;5083192;28;20047;-74
2021/10/09 10:14:29;;;;;;;14.13;10.35;;;;;;;13.94;81.44;102562.44;5083092;28;20028;-73
2021/10/09 10:16:59;;;;;;;13.00;9.32;;;;;;;13.65;81.78;102537.72;5065191;28;20045;-73
2021/10/09 10:19:49;;;;;;;12.30;8.70;;;;;;;13.66;82.35;102544.66;5083007;28;20069;-73
2021/10/09 10:22:16;;;;;;;13.52;9.82;;;;;;;13.57;82.54;102552.38;5064975;28;20186;-73
2021/10/09 10:24:44;;;;;;;15.20;10.18;;;;;;;13.37;82.47;102532.94;5083251;28;20029;-75
2021/10/09 10:27:40;;;;;;;10.75;8.25;;;;;;;13.40;82.40;102547.78;5065210;28;20029;-73
2021/10/09 10:30:15;;;;;;;13.60;8.75;;;;;;;13.35;81.79;102554.66;5083172;28;20031;-74
2021/10/09 10:32:48;;;;;;;12.23;8.18;;;;;;;13.36;81.78;102551.19;5065381;28;20020;-72
2021/10/09 10:35:28;;;;;;;10.18;7.60;;;;;;;13.35;81.93;102557.28;5086938;28;20099;-74
2021/10/09 10:37:56;;;;;;;10.15;6.78;;;;;;;13.26;80.02;102556.28;5069050;28;20297;-73
2021/10/09 10:40:50;;;;;;;8.95;7.03;;;;;;;13.16;78.77;102551.78;5069204;28;20031;-74
2021/10/09 10:47:07;;;;;;;9.63;7.00;;;;;;;13.17;78.71;102550.03;5087246;28;20025;-73
2021/10/09 10:49:26;;;;;;;10.65;7.00;;;;;;;13.22;78.37;102551.88;5079127;28;20477;-73
2021/10/09 10:57:02;;;;;;;9.60;6.72;;;;;;;13.36;80.09;102546.88;5087100;28;20103;-73
2021/10/09 10:59:31;;;;;;;8.43;6.78;;;;;;;13.38;80.51;102545.16;5086450;28;20559;-73
2021/10/09 11:02:10;;;;;;;9.10;7.55;;;;;;;13.22;78.07;102537.94;5086825;28;20609;-72
2021/10/09 11:04:52;;;;;;;10.23;7.18;;;;;;;13.29;79.85;102539.78;5068628;28;20162;-73
2021/10/09 11:07:19;;;;;;;12.55;6.57;;;;;;;13.41;80.70;102540.81;5086658;28;20035;-73
2021/10/09 11:09:46;;;;;;;10.75;8.10;;;;;;;13.53;81.12;102537.56;5086684;28;20076;-73
2021/10/09 11:12:33;;;;;;;10.63;7.57;;;;;;;13.58;81.46;102538.47;5068376;28;20032;-71
2021/10/09 11:15:25;;;;;;;12.88;7.25;;;;;;;13.63;81.61;102536.81;5086626;28;20040;-70
2021/10/09 11:18:00;;;;;;;11.00;7.93;;;;;;;13.64;80.94;102525.53;5068500;28;20025;-71
2021/10/09 11:20:35;;;;;;;10.73;8.07;;;;;;;13.57;80.52;102527.16;5086457;28;20032;-72
2021/10/09 11:23:03;;;;;;;10.40;7.20;;;;;;;13.55;80.51;102528.88;5086147;28;20037;-70
2021/10/09 11:25:33;;;;;;;10.48;6.45;;;;;;;13.47;77.36;102520.91;5068261;28;20415;-71
2021/10/09 11:28:01;;;;;;;9.68;6.90;;;;;;;13.45;77.38;102519.16;5085929;28;20021;-71
2021/10/09 11:30:28;;;;;;;8.93;6.43;;;;;;;13.51;77.89;102520.13;5086086;28;20036;-71
2021/10/09 11:32:56;;;;;;;10.00;7.97;;;;;;;13.55;78.01;102530.59;5068119;28;20464;-71
2021/10/09 11:35:36;;;;;;;11.38;6.97;;;;;;;13.60;77.02;102526.31;5086337;28;20019;-72
2021/10/09 11:38:23;;;;;;;11.07;6.47;;;;;;;13.61;76.31;102515.91;5068136;28;20103;-72
2021/10/09 11:43:20;;;;;;;8.25;6.90;;;;;;;13.76;76.46;102514.34;5086172;28;20054;-71
2021/10/09 11:54:21;;;;;;;8.85;6.90;;;;;;;13.83;73.86;102512.69;5086112;28;20035;-71
2021/10/09 11:56:46;;;;;;;8.70;6.03;;;;;;;13.87;74.30;102504.91;5085759;28;20020;-72
2021/10/09 11:59:15;;;;;;;7.05;6.18;;;;;;;13.99;75.83;102511.13;5085578;28;20035;-71
2021/10/09 12:01:45;;;;;;;10.23;6.35;;;;;;;14.20;76.96;102514.84;5085484;28;20369;-70
2021/10/09 12:04:21;;;;;;;8.18;6.32;;;;;;;14.12;76.27;102492.13;5085641;28;20028;-72
2021/10/09 12:06:55;;;;;;;9.15;7.07;;;;;;;14.13;76.11;102503.44;5085544;28;20033;-70
2021/10/09 12:09:45;;;;;;;8.77;7.18;;;;;;;14.17;76.02;102507.84;5067450;28;20542;-71
2021/10/09 12:12:12;;;;;;;11.30;8.05;;;;;;;14.21;75.97;102507.03;5085568;28;20016;-71
2021/10/09 12:14:37;;;;;;;10.10;6.57;;;;;;;14.25;75.21;102507.91;5085256;28;20032;-70
2021/10/09 12:17:03;;;;;;;10.07;7.00;;;;;;;14.37;75.10;102496.72;5085186;28;20042;-71
2021/10/09 12:19:32;;;;;;;11.07;7.65;;;;;;;14.52;75.16;102506.41;5085071;28;20525;-71
2021/10/09 12:21:59;;;;;;;10.07;6.68;;;;;;;14.65;75.60;102501.31;5085184;28;20100;-71
2021/10/09 12:24:27;;;;;;;10.65;7.53;;;;;;;14.71;74.95;102501.34;5085376;28;20024;-71
2021/10/09 12:27:15;;;;;;;9.63;7.85;;;;;;;14.78;75.62;102494.41;5085040;28;20036;-71
2021/10/09 12:30:10;;;;;;;12.65;8.43;;;;;;;14.76;75.79;102491.78;5084916;28;20021;-71
2021/10/09 12:32:47;;;;;;;15.82;8.77;;;;;;;14.74;75.01;102496.16;5085089;28;20036;-71
2021/10/09 12:35:17;;;;;;;14.32;9.32;;;;;;;14.68;76.07;102494.34;5085031;28;20031;-71
2021/10/09 12:38:00;;;;;;;14.52;9.13;;;;;;;14.60;76.20;102491.69;5085080;28;20448;-71
2021/10/09 12:40:49;;;;;;;14.98;9.80;;;;;;;14.58;76.13;102493.44;5066698;28;20052;-71
2021/10/09 12:43:19;;;;;;;16.05;9.27;;;;;;;14.50;75.38;102484.63;5084668;28;20024;-70
2021/10/09 12:45:45;;;;;;;11.73;9.23;;;;;;;14.51;76.70;102483.75;5084815;28;20039;-71
2021/10/09 12:48:11;;;;;;;12.68;9.13;;;;;;;14.50;77.08;102480.25;5084789;28;20028;-70
2021/10/09 12:50:40;;;;;;;13.32;8.88;;;;;;;14.46;77.49;102472.38;5084697;28;20035;-70
2021/10/09 12:53:06;;;;;;;14.25;9.30;;;;;;;14.48;76.00;102474.16;5084721;28;20111;-71
2021/10/09 12:55:35;;;;;;;12.73;9.45;;;;;;;14.47;75.49;102475.00;5066115;28;20032;-71
2021/10/09 12:58:08;;;;;;;11.57;8.38;;;;;;;14.40;75.91;102472.34;5084034;28;20040;-71
2021/10/09 13:00:35;;;;;;;14.77;9.65;;;;;;;14.31;76.45;102468.81;5084667;28;20025;-72
2021/10/09 13:03:00;;;;;;;13.65;9.27;;;;;;;14.27;77.29;102453.06;5084545;28;20020;-72
2021/10/09 13:05:28;;;;;;;15.02;10.75;;;;;;;14.26;77.19;102462.66;5066407;28;20032;-70
2021/10/09 13:07:56;;;;;;;13.93;10.68;;;;;;;14.19;77.86;102447.75;5084223;28;20084;-71
2021/10/09 13:10:22;;;;;;;19.38;11.35;;;;;;;14.13;78.10;102439.03;5084075;28;20048;-71
2021/10/09 13:12:48;;;;;;;15.40;11.65;;;;;;;14.23;78.38;102458.25;5084115;28;20028;-71
2021/10/09 13:15:17;;;;;;;16.40;12.75;;;;;;;14.10;78.50;102451.19;5084127;28;20047;-70
2021/10/09 13:17:43;;;;;;;16.05;11.50;;;;;;;13.99;77.90;102453.69;5083915;28;20105;-70
2021/10/09 13:20:10;;;;;;;16.45;11.60;;;;;;;13.98;78.28;102451.91;5065794;28;20087;-71
2021/10/09 13:22:35;;;;;;;16.98;12.18;;;;;;;13.78;77.89;102434.31;5083975;28;20079;-71
2021/10/09 13:25:00;;;;;;;18.35;12.82;;;;;;;13.59;78.93;102441.97;5083984;28;20024;-71
2021/10/09 13:27:26;;;;;;;15.60;11.23;;;;;;;13.48;79.58;102433.09;5083995;28;20061;-71
2021/10/09 13:29:51;;;;;;;19.63;13.38;;;;;;;13.32;79.91;102435.47;5083477;28;20021;-71
2021/10/09 13:32:16;;;;;;;22.65;16.55;;;;;;;13.07;80.48;102419.53;5083771;28;20024;-71
2021/10/09 13:34:42;;;;;;;22.60;14.90;;;;;;;13.10;81.73;102436.97;5065773;28;20486;-71
2021/10/09 13:37:08;;;;;;;23.83;16.27;;;;;;;13.12;82.15;102438.72;5065666;28;20009;-72